Time;durP1;ratioP1;P1;durP2;ratioP2;P2;SDS_P1;SDS_P2;PMS_P1;PMS_P2;Temp;Humidity;BMP_temperature;BMP_pressure;BME280_temperature;BME280_humidity;BME280_pressure;Samples;Min_cycle;Max_cycle;Signal;HPM_P1;HPM_P2
2022/03/11 00:00:42;;;;;;;9.38;7.55;;;17.80;45.00;;;;;;4951115;28;92823;-66
2022/03/11 00:03:10;;;;;;;9.88;8.40;;;17.80;44.90;;;;;;4953297;28;93081;-66
2022/03/11 00:05:36;;;;;;;8.13;7.18;;;17.80;44.90;;;;;;4951870;28;94904;-66
2022/03/11 00:08:02;;;;;;;9.13;7.90;;;17.80;44.90;;;;;;4952678;28;93351;-66
2022/03/11 00:10:28;;;;;;;8.77;7.22;;;17.80;44.90;;;;;;4953284;28;92542;-66
2022/03/11 00:12:54;;;;;;;9.32;7.60;;;17.80;44.90;;;;;;4953747;28;92127;-66
2022/03/11 00:15:19;;;;;;;8.80;7.90;;;17.80;44.90;;;;;;4951896;28;93618;-65
2022/03/11 00:17:45;;;;;;;8.63;7.72;;;17.80;44.90;;;;;;4951624;28;93663;-66
2022/03/11 00:20:11;;;;;;;8.70;7.80;;;17.70;44.80;;;;;;4949946;28;95528;-66
2022/03/11 00:22:36;;;;;;;7.70;6.90;;;17.70;44.80;;;;;;4952521;28;92739;-66
2022/03/11 00:25:03;;;;;;;8.30;7.40;;;17.70;45.80;;;;;;4952948;28;93975;-66
2022/03/11 00:27:28;;;;;;;8.27;7.07;;;17.70;44.70;;;;;;4952688;28;94434;-66
2022/03/11 00:29:54;;;;;;;7.90;7.10;;;17.70;44.70;;;;;;4953549;28;92990;-66
2022/03/11 00:32:20;;;;;;;9.80;7.32;;;17.70;44.80;;;;;;4952672;28;92703;-66
2022/03/11 00:34:45;;;;;;;8.77;7.32;;;17.70;44.70;;;;;;4933248;28;93781;-66
2022/03/11 00:37:11;;;;;;;9.00;6.53;;;17.70;44.80;;;;;;4951771;28;92761;-65
2022/03/11 00:39:37;;;;;;;9.50;6.93;;;17.70;44.80;;;;;;4950899;28;92993;-66
2022/03/11 00:42:05;;;;;;;9.00;7.13;;;17.70;44.80;;;;;;4953580;28;92738;-66
2022/03/11 00:44:30;;;;;;;7.85;6.60;;;17.70;44.70;;;;;;4950739;28;95624;-65
2022/03/11 00:46:56;;;;;;;7.70;6.88;;;17.70;44.70;;;;;;4951325;28;96285;-66
2022/03/11 00:49:21;;;;;;;8.48;7.57;;;17.60;44.70;;;;;;4951587;28;93410;-66
2022/03/11 00:51:47;;;;;;;7.70;7.00;;;17.60;44.70;;;;;;4952112;28;92505;-66
2022/03/11 00:54:13;;;;;;;7.43;6.68;;;17.60;44.70;;;;;;4952190;28;96681;-66
2022/03/11 00:56:38;;;;;;;8.02;7.18;;;17.60;44.70;;;;;;4952241;28;93807;-66
2022/03/11 00:59:04;;;;;;;8.80;6.85;;;17.60;44.60;;;;;;4934506;28;93124;-66
2022/03/11 01:01:30;;;;;;;7.90;6.75;;;17.60;44.70;;;;;;4951962;28;91798;-66
2022/03/11 01:03:55;;;;;;;7.13;6.43;;;17.60;44.70;;;;;;4952515;28;93181;-66
2022/03/11 01:06:21;;;;;;;8.98;6.60;;;17.60;44.70;;;;;;4952096;28;92851;-66
2022/03/11 01:08:46;;;;;;;9.00;6.80;;;17.60;44.70;;;;;;4950702;28;94845;-66
2022/03/11 01:11:12;;;;;;;7.38;6.53;;;17.60;45.70;;;;;;4951996;28;92585;-66
2022/03/11 01:13:39;;;;;;;6.78;6.05;;;17.60;44.70;;;;;;4951967;28;93246;-66
2022/03/11 01:16:05;;;;;;;7.80;7.00;;;17.60;44.60;;;;;;4952129;28;94627;-66
2022/03/11 01:18:31;;;;;;;7.28;6.20;;;17.50;44.50;;;;;;4952416;28;92959;-66
2022/03/11 01:20:56;;;;;;;7.35;6.57;;;17.60;44.60;;;;;;4952948;28;92530;-66
2022/03/11 01:23:22;;;;;;;8.48;6.43;;;17.50;44.50;;;;;;4950129;28;94325;-66
2022/03/11 01:25:48;;;;;;;7.05;6.25;;;17.50;44.50;;;;;;4952917;28;103240;-66
2022/03/11 01:28:13;;;;;;;8.45;6.30;;;17.50;44.50;;;;;;4952610;28;92429;-66
2022/03/11 01:30:40;;;;;;;7.18;6.47;;;17.50;44.50;;;;;;4952771;28;92725;-66
2022/03/11 01:33:05;;;;;;;7.53;6.32;;;17.50;44.50;;;;;;4950223;28;96844;-66
2022/03/11 01:35:31;;;;;;;7.22;5.97;;;17.50;44.40;;;;;;4952526;28;95041;-66
2022/03/11 01:37:57;;;;;;;7.28;6.32;;;17.50;44.40;;;;;;4951642;28;93275;-66
2022/03/11 01:40:23;;;;;;;7.50;6.38;;;17.50;44.30;;;;;;4950912;28;92998;-66
2022/03/11 01:42:48;;;;;;;6.43;5.72;;;17.50;44.30;;;;;;4951438;28;94369;-66
2022/03/11 01:45:14;;;;;;;6.57;5.85;;;17.50;44.40;;;;;;4950373;28;93861;-66
2022/03/11 01:47:41;;;;;;;7.70;6.30;;;17.50;44.30;;;;;;4951966;28;92538;-66
2022/03/11 01:50:09;;;;;;;7.40;5.97;;;17.40;44.30;;;;;;4951811;28;91847;-66
2022/03/11 01:52:37;;;;;;;6.78;6.07;;;17.50;44.30;;;;;;4950385;28;93105;-66
2022/03/11 01:55:04;;;;;;;6.70;6.03;;;17.40;44.20;;;;;;4950198;28;94207;-66
2022/03/11 01:57:34;;;;;;;7.85;6.75;;;17.50;45.30;;;;;;4950308;28;95517;-66
2022/03/11 01:59:59;;;;;;;6.95;6.32;;;17.40;44.20;;;;;;4950632;28;93266;-65
2022/03/11 02:02:25;;;;;;;6.82;6.13;;;17.40;44.20;;;;;;4950538;28;97243;-66
2022/03/11 02:04:50;;;;;;;8.48;5.90;;;17.40;44.20;;;;;;4950627;28;92919;-66
2022/03/11 02:07:16;;;;;;;7.30;5.70;;;17.40;44.20;;;;;;4950752;28;93488;-66
2022/03/11 02:09:42;;;;;;;7.13;6.35;;;17.40;44.20;;;;;;4950520;28;92674;-66
2022/03/11 02:12:08;;;;;;;6.75;6.03;;;17.40;44.20;;;;;;4949952;28;94181;-66
2022/03/11 02:14:33;;;;;;;8.02;5.65;;;17.40;44.10;;;;;;4951034;28;92624;-66
2022/03/11 02:16:59;;;;;;;6.45;5.85;;;17.40;44.10;;;;;;4951473;28;93128;-66
2022/03/11 02:19:24;;;;;;;6.78;6.07;;;17.40;44.10;;;;;;4950777;28;93082;-66
2022/03/11 02:21:53;;;;;;;6.75;5.88;;;17.40;44.10;;;;;;4948942;28;95481;-66
2022/03/11 02:24:19;;;;;;;6.78;5.82;;;17.40;44.10;;;;;;4950169;28;96487;-66
2022/03/11 02:26:45;;;;;;;7.72;6.18;;;17.30;44.10;;;;;;4948240;28;92537;-66
2022/03/11 02:29:11;;;;;;;6.38;5.68;;;17.30;44.10;;;;;;4949891;28;94256;-66
2022/03/11 02:31:37;;;;;;;6.75;6.05;;;17.30;44.10;;;;;;4950206;28;95013;-66
2022/03/11 02:34:04;;;;;;;6.20;5.60;;;17.30;44.10;;;;;;4950516;28;94092;-66
2022/03/11 02:36:29;;;;;;;6.55;5.85;;;17.30;44.00;;;;;;4950257;28;93040;-66
2022/03/11 02:38:55;;;;;;;7.57;6.00;;;17.30;44.00;;;;;;4951314;28;91790;-66
2022/03/11 02:41:22;;;;;;;6.18;5.57;;;17.30;44.10;;;;;;4949221;28;93107;-66
2022/03/11 02:43:48;;;;;;;6.75;5.63;;;17.30;44.00;;;;;;4949868;28;94356;-66
2022/03/11 02:46:14;;;;;;;5.93;5.30;;;17.30;44.10;;;;;;4949858;28;95258;-66
2022/03/11 02:48:40;;;;;;;7.22;5.95;;;17.30;44.00;;;;;;4950703;28;92999;-66
2022/03/11 02:51:06;;;;;;;6.25;5.63;;;17.30;44.00;;;;;;4950117;28;93610;-66
2022/03/11 02:53:32;;;;;;;5.95;5.45;;;17.30;44.00;;;;;;4949080;28;94057;-66
2022/03/11 02:55:58;;;;;;;6.35;5.40;;;17.20;43.90;;;;;;4950066;28;93303;-66
2022/03/11 02:58:24;;;;;;;6.70;5.63;;;17.20;43.80;;;;;;4950142;28;92805;-66
2022/03/11 03:00:50;;;;;;;6.18;5.57;;;17.20;43.80;;;;;;4950806;28;94243;-66
2022/03/11 03:03:16;;;;;;;6.95;5.53;;;17.20;43.90;;;;;;4950952;28;94108;-66
2022/03/11 03:05:41;;;;;;;6.18;5.57;;;17.20;43.90;;;;;;4950733;28;93048;-66
2022/03/11 03:08:07;;;;;;;6.43;5.50;;;17.20;43.90;;;;;;4950378;28;92952;-66
2022/03/11 03:10:33;;;;;;;6.18;5.57;;;17.20;43.90;;;;;;4947945;28;96203;-67
2022/03/11 03:12:59;;;;;;;6.32;5.47;;;17.20;43.90;;;;;;4950069;28;96254;-66
2022/03/11 03:15:24;;;;;;;6.35;5.38;;;17.20;43.90;;;;;;4949347;28;92775;-66
2022/03/11 03:17:50;;;;;;;6.43;5.63;;;17.20;43.80;;;;;;4951431;28;92477;-66
2022/03/11 03:20:16;;;;;;;6.53;5.82;;;17.20;43.80;;;;;;4949379;28;96899;-66
2022/03/11 03:22:42;;;;;;;6.93;5.82;;;17.20;43.80;;;;;;4949099;28;94429;-66
2022/03/11 03:25:09;;;;;;;6.75;5.90;;;17.20;43.80;;;;;;4949294;28;92580;-66
2022/03/11 03:27:35;;;;;;;6.20;5.60;;;17.20;43.80;;;;;;4950120;28;92288;-66
2022/03/11 03:30:02;;;;;;;6.10;5.50;;;17.10;43.70;;;;;;4949551;28;94054;-66
2022/03/11 03:32:27;;;;;;;6.68;5.53;;;17.10;43.70;;;;;;4949241;28;94393;-66
2022/03/11 03:34:53;;;;;;;6.07;5.47;;;17.10;43.70;;;;;;4949214;28;96822;-66
2022/03/11 03:37:19;;;;;;;6.88;5.78;;;17.10;43.70;;;;;;4949989;28;92525;-66
2022/03/11 03:39:45;;;;;;;6.03;5.43;;;17.10;43.70;;;;;;4950330;28;93631;-66
2022/03/11 03:42:10;;;;;;;6.68;5.97;;;17.10;43.60;;;;;;4949123;28;104736;-66
2022/03/11 03:44:36;;;;;;;6.57;5.88;;;17.10;43.70;;;;;;4949496;28;92437;-66
2022/03/11 03:47:04;;;;;;;6.38;5.38;;;17.10;43.60;;;;;;4949818;28;92998;-66
2022/03/11 03:49:30;;;;;;;6.97;5.57;;;17.10;43.70;;;;;;4949348;28;95024;-67
2022/03/11 03:51:56;;;;;;;6.68;6.05;;;17.10;43.60;;;;;;4951021;28;94079;-66
2022/03/11 03:54:21;;;;;;;6.13;5.50;;;17.10;43.60;;;;;;4952535;28;94242;-66
2022/03/11 03:56:47;;;;;;;5.97;5.47;;;17.00;43.50;;;;;;4953053;28;92780;-66
2022/03/11 03:59:15;;;;;;;6.05;5.40;;;17.00;44.50;;;;;;4951379;28;95437;-66
2022/03/11 05:44:49;;;;;;;6.05;5.20;;;16.70;43.20;;;;;;3904548;22;94010;-65
2022/03/11 05:47:14;;;;;;;6.30;5.10;;;16.70;43.30;;;;;;4970393;28;92580;-66
2022/03/11 05:49:41;;;;;;;5.72;4.88;;;16.70;43.20;;;;;;4968580;28;107759;-66
2022/03/11 05:52:06;;;;;;;7.03;5.32;;;16.70;43.20;;;;;;4969660;28;99746;-66
2022/03/11 05:54:32;;;;;;;8.38;4.68;;;16.70;43.10;;;;;;4970686;28;92537;-67
2022/03/11 05:56:59;;;;;;;9.85;5.50;;;16.60;43.30;;;;;;4969905;28;93178;-66
2022/03/11 05:59:25;;;;;;;7.45;5.00;;;16.70;43.50;;;;;;4970486;28;94291;-67
2022/03/11 06:01:51;;;;;;;7.00;5.30;;;16.70;43.40;;;;;;4971190;28;93443;-67
2022/03/11 06:04:17;;;;;;;7.13;4.88;;;16.70;44.00;;;;;;4969764;28;92623;-67
2022/03/11 06:06:43;;;;;;;5.43;4.90;;;16.80;44.50;;;;;;4971225;28;92203;-66
2022/03/11 06:09:09;;;;;;;6.18;4.95;;;16.90;44.30;;;;;;4970664;28;94399;-67
2022/03/11 06:11:38;;;;;;;6.55;4.57;;;17.10;44.10;;;;;;4970570;28;93752;-67
2022/03/11 06:14:03;;;;;;;6.43;4.82;;;17.20;43.90;;;;;;4970163;28;94962;-67
2022/03/11 06:16:29;;;;;;;5.38;4.53;;;17.30;44.10;;;;;;4952833;28;93036;-66
2022/03/11 06:18:56;;;;;;;4.80;4.30;;;17.40;44.00;;;;;;4971090;28;100552;-67
2022/03/11 06:21:21;;;;;;;5.60;4.15;;;17.50;43.60;;;;;;4970520;28;94289;-67
2022/03/11 06:23:47;;;;;;;5.13;4.63;;;17.70;43.60;;;;;;4970075;28;92452;-67
2022/03/11 06:26:12;;;;;;;5.03;4.53;;;17.70;43.40;;;;;;4969867;28;94881;-66
2022/03/11 06:28:38;;;;;;;5.03;4.13;;;17.90;43.30;;;;;;4969789;28;93262;-67
2022/03/11 06:31:04;;;;;;;5.00;4.10;;;17.90;43.50;;;;;;4969918;28;94113;-67
2022/03/11 06:33:29;;;;;;;5.57;4.30;;;18.00;43.70;;;;;;4970970;28;92793;-67
2022/03/11 06:35:55;;;;;;;5.00;3.63;;;18.00;43.30;;;;;;4970129;28;92514;-67
2022/03/11 06:38:21;;;;;;;8.00;4.18;;;18.10;43.10;;;;;;4969147;28;95491;-68
2022/03/11 06:40:49;;;;;;;5.15;4.38;;;18.20;43.60;;;;;;4969808;28;96677;-66
2022/03/11 06:43:15;;;;;;;5.38;3.80;;;18.20;43.10;;;;;;4970646;28;93008;-66
2022/03/11 06:45:40;;;;;;;10.40;4.88;;;18.20;42.80;;;;;;4969932;28;92551;-67
2022/03/11 06:48:06;;;;;;;5.38;4.07;;;18.20;42.80;;;;;;4969951;28;94145;-67
2022/03/11 06:50:32;;;;;;;4.53;3.58;;;18.20;42.80;;;;;;4970074;28;94215;-66
2022/03/11 06:52:57;;;;;;;6.57;4.05;;;18.20;42.90;;;;;;4971130;28;92923;-67
2022/03/11 06:55:24;;;;;;;5.60;4.05;;;18.20;43.10;;;;;;4969671;28;92310;-69
2022/03/11 06:57:51;;;;;;;5.72;4.35;;;18.20;43.00;;;;;;4970125;28;101442;-67
2022/03/11 07:00:17;;;;;;;6.75;4.43;;;18.10;42.60;;;;;;4969003;28;93740;-67
2022/03/11 07:02:42;;;;;;;11.02;4.30;;;18.10;42.50;;;;;;4968954;28;95029;-67
2022/03/11 07:05:10;;;;;;;13.95;4.63;;;18.10;42.50;;;;;;4969606;28;98850;-67
2022/03/11 07:07:36;;;;;;;20.88;5.03;;;18.10;42.70;;;;;;4969336;28;94174;-68
2022/03/11 07:10:04;;;;;;;44.10;6.07;;;18.10;42.80;;;;;;4970417;28;92907;-67
2022/03/11 07:12:31;;;;;;;61.20;7.18;;;18.10;42.90;;;;;;4968912;28;93157;-68
2022/03/11 07:14:59;;;;;;;42.55;5.55;;;18.20;43.50;;;;;;4969994;28;92481;-68
2022/03/11 07:17:25;;;;;;;36.85;6.18;;;18.20;43.90;;;;;;4969506;28;94067;-68
2022/03/11 07:19:50;;;;;;;29.38;6.18;;;18.20;43.90;;;;;;4970143;28;94168;-68
2022/03/11 07:22:16;;;;;;;38.70;5.95;;;18.20;43.80;;;;;;4969665;28;92499;-68
2022/03/11 07:24:43;;;;;;;40.03;5.80;;;18.10;43.80;;;;;;4969469;28;92426;-68
2022/03/11 07:27:10;;;;;;;36.40;5.75;;;18.10;44.10;;;;;;4971143;28;96843;-67
2022/03/11 07:29:37;;;;;;;31.85;5.50;;;18.10;44.50;;;;;;4973396;28;96386;-68
2022/03/11 07:32:04;;;;;;;28.65;5.13;;;18.10;44.80;;;;;;4973360;28;93070;-68
2022/03/11 07:34:30;;;;;;;32.70;5.60;;;18.10;44.90;;;;;;4973863;28;92994;-67
2022/03/11 07:36:55;;;;;;;26.58;5.63;;;18.20;45.10;;;;;;4972782;28;100523;-68
2022/03/11 07:39:21;;;;;;;24.50;5.00;;;18.20;45.10;;;;;;4972500;28;92905;-67
2022/03/11 07:41:49;;;;;;;25.45;4.95;;;18.30;44.90;;;;;;4973353;28;92639;-67
2022/03/11 07:44:15;;;;;;;21.52;4.90;;;18.30;45.10;;;;;;4972934;28;92199;-67
2022/03/11 07:46:42;;;;;;;17.27;4.80;;;18.30;45.00;;;;;;4972350;28;94102;-68
2022/03/11 07:49:10;;;;;;;19.45;4.55;;;18.40;45.00;;;;;;4973255;28;94550;-67
2022/03/11 07:51:35;;;;;;;16.88;4.68;;;18.40;44.40;;;;;;4973127;28;95456;-68
2022/03/11 07:54:01;;;;;;;19.92;4.45;;;18.40;44.60;;;;;;4974310;28;93035;-69
2022/03/11 07:56:27;;;;;;;17.48;4.90;;;18.50;44.60;;;;;;4974881;28;93066;-69
2022/03/11 07:58:56;;;;;;;12.55;4.40;;;18.50;44.60;;;;;;4972939;28;94690;-68
2022/03/11 08:01:23;;;;;;;20.02;4.75;;;18.60;44.50;;;;;;4974064;28;93774;-70
2022/03/11 08:03:48;;;;;;;11.85;3.97;;;18.60;44.30;;;;;;4973944;28;92975;-69
2022/03/11 08:06:14;;;;;;;20.85;4.90;;;18.60;44.50;;;;;;4971271;28;101282;-70
2022/03/11 08:08:41;;;;;;;15.80;4.63;;;18.70;44.40;;;;;;4973831;28;92935;-69
2022/03/11 08:11:08;;;;;;;18.85;4.30;;;18.70;44.60;;;;;;4973174;28;92388;-68
2022/03/11 08:13:34;;;;;;;14.95;4.10;;;18.70;44.40;;;;;;4954755;28;92581;-68
2022/03/11 08:16:00;;;;;;;20.10;4.28;;;18.70;44.60;;;;;;4971426;28;96768;-68
2022/03/11 08:18:26;;;;;;;11.55;4.03;;;18.70;44.80;;;;;;4972506;28;95164;-68
2022/03/11 08:20:52;;;;;;;13.05;3.90;;;18.80;45.00;;;;;;4972792;28;92559;-70
2022/03/11 08:23:18;;;;;;;10.82;4.20;;;18.80;44.90;;;;;;4973093;28;92906;-70
2022/03/11 08:25:45;;;;;;;13.55;3.97;;;18.80;44.70;;;;;;4972115;28;93006;-67
2022/03/11 08:28:13;;;;;;;13.68;4.20;;;18.80;44.80;;;;;;4971207;28;93934;-68
2022/03/11 08:30:39;;;;;;;11.23;4.40;;;18.80;45.00;;;;;;4971522;28;92509;-68
2022/03/11 08:33:06;;;;;;;11.27;3.83;;;18.80;44.70;;;;;;4972336;28;91956;-72
2022/03/11 08:35:33;;;;;;;11.07;4.10;;;18.80;44.70;;;;;;4971955;28;94525;-70
2022/03/11 08:37:59;;;;;;;15.65;4.00;;;18.90;44.70;;;;;;4972018;28;92623;-69
2022/03/11 08:40:26;;;;;;;11.80;4.00;;;18.90;44.70;;;;;;4970635;28;95472;-67
2022/03/11 08:42:53;;;;;;;11.32;4.05;;;18.90;44.40;;;;;;4972288;28;93052;-67
2022/03/11 08:45:22;;;;;;;9.75;3.65;;;18.90;44.50;;;;;;4971157;28;93467;-67
2022/03/11 08:47:52;;;;;;;8.98;3.60;;;18.90;44.50;;;;;;4972260;28;93006;-68
2022/03/11 08:50:18;;;;;;;9.73;3.50;;;19.00;44.50;;;;;;4972856;28;92424;-68
2022/03/11 08:52:44;;;;;;;8.02;3.55;;;19.00;44.70;;;;;;4972021;28;92525;-68
2022/03/11 08:55:11;;;;;;;14.73;3.92;;;19.00;44.60;;;;;;4972118;28;94291;-67
2022/03/11 08:57:37;;;;;;;12.57;3.85;;;19.00;44.90;;;;;;4972543;28;93432;-68
2022/03/11 09:00:14;;;;;;;6.93;3.85;;;19.00;44.90;;;;;;4972679;28;92612;-68
2022/03/11 09:02:39;;;;;;;7.18;3.63;;;19.10;44.80;;;;;;4972615;28;92895;-68
2022/03/11 09:05:06;;;;;;;7.75;3.80;;;19.10;45.10;;;;;;4971051;28;95379;-67
2022/03/11 09:07:32;;;;;;;9.27;3.80;;;19.10;45.10;;;;;;4972175;28;96644;-66
2022/03/11 09:09:59;;;;;;;12.23;3.90;;;19.10;45.30;;;;;;4953400;28;92618;-67
2022/03/11 09:12:25;;;;;;;11.43;3.75;;;19.10;44.80;;;;;;4972111;28;92589;-69
2022/03/11 09:14:51;;;;;;;6.18;3.83;;;19.10;44.60;;;;;;4971670;28;93862;-68
2022/03/11 09:17:16;;;;;;;12.75;3.55;;;19.10;44.90;;;;;;4971493;28;92959;-68
2022/03/11 09:19:43;;;;;;;8.38;3.78;;;19.10;45.20;;;;;;4972584;28;93235;-70
2022/03/11 09:22:11;;;;;;;8.38;3.90;;;19.10;45.30;;;;;;4971739;28;92023;-68
2022/03/11 09:24:41;;;;;;;8.23;3.85;;;19.10;45.20;;;;;;4970651;28;93391;-69
2022/03/11 09:27:09;;;;;;;11.25;4.05;;;19.10;45.20;;;;;;4971225;28;94722;-68
2022/03/11 09:29:35;;;;;;;10.02;4.03;;;19.10;45.40;;;;;;4970542;28;95532;-69
2022/03/11 09:32:01;;;;;;;13.32;4.10;;;19.10;45.60;;;;;;4971658;28;92842;-69
2022/03/11 09:34:27;;;;;;;6.55;3.72;;;19.10;45.70;;;;;;4971239;28;93885;-70
2022/03/11 09:36:53;;;;;;;6.97;3.88;;;19.10;45.70;;;;;;4971435;28;94715;-70
2022/03/11 09:39:22;;;;;;;5.97;3.72;;;19.10;45.60;;;;;;4972067;28;92420;-69
2022/03/11 09:41:50;;;;;;;8.57;3.90;;;19.10;45.70;;;;;;4971525;28;92721;-70
2022/03/11 09:44:17;;;;;;;8.60;3.40;;;19.10;45.80;;;;;;4975446;28;93282;-69
2022/03/11 09:46:43;;;;;;;7.43;3.55;;;19.10;45.80;;;;;;4974872;28;92875;-70
2022/03/11 09:49:12;;;;;;;11.07;3.85;;;19.10;45.80;;;;;;4970808;28;92595;-67
2022/03/11 09:51:40;;;;;;;8.55;3.80;;;19.10;45.90;;;;;;4970639;28;92605;-68
2022/03/11 09:54:06;;;;;;;7.22;3.78;;;19.10;45.90;;;;;;4969852;28;97603;-68
2022/03/11 09:56:35;;;;;;;7.60;3.63;;;19.20;45.70;;;;;;4970735;28;95129;-68
2022/03/11 09:59:01;;;;;;;6.22;4.07;;;19.20;45.70;;;;;;4971451;28;93168;-68
2022/03/11 10:01:26;;;;;;;9.20;4.15;;;19.20;45.40;;;;;;4971604;28;92928;-68
2022/03/11 10:03:53;;;;;;;5.85;3.58;;;19.20;45.60;;;;;;4970691;28;92855;-69
2022/03/11 10:06:41;;;;;;;7.65;3.72;;;19.20;45.80;;;;;;4969776;28;92974;-68
2022/03/11 10:09:30;;;;;;;7.60;3.25;;;19.20;45.90;;;;;;4970114;28;93234;-67
2022/03/11 10:11:56;;;;;;;5.15;3.75;;;19.20;46.10;;;;;;4970548;28;92100;-68
2022/03/11 10:14:31;;;;;;;8.65;3.85;;;19.20;45.90;;;;;;4970850;28;93033;-68
2022/03/11 10:16:59;;;;;;;4.88;3.60;;;19.20;45.90;;;;;;4971196;28;92624;-68
2022/03/11 10:19:24;;;;;;;5.45;3.60;;;19.20;46.10;;;;;;4969137;28;95178;-67
2022/03/11 10:21:51;;;;;;;6.57;4.10;;;19.20;45.90;;;;;;4971158;28;92585;-68
2022/03/11 10:24:20;;;;;;;5.75;3.90;;;19.20;45.90;;;;;;4970093;28;93059;-67
2022/03/11 10:26:47;;;;;;;6.03;3.75;;;19.20;46.10;;;;;;4970609;28;92658;-67
2022/03/11 10:29:18;;;;;;;6.45;3.60;;;19.20;46.10;;;;;;4970718;28;92985;-67
2022/03/11 10:31:46;;;;;;;5.47;4.30;;;19.20;46.20;;;;;;4969991;28;92495;-69
2022/03/11 10:34:15;;;;;;;7.95;4.15;;;19.20;46.20;;;;;;4969870;28;92821;-69
2022/03/11 10:37:12;;;;;;;7.30;3.85;;;19.20;46.10;;;;;;4970144;28;94388;-69
2022/03/11 10:39:47;;;;;;;6.47;3.50;;;19.20;46.20;;;;;;4969477;28;92623;-69
2022/03/11 10:42:19;;;;;;;9.55;4.22;;;19.20;45.90;;;;;;4970015;28;93127;-67
2022/03/11 10:44:56;;;;;;;7.75;3.85;;;19.20;45.60;;;;;;4969042;28;95525;-67
2022/03/11 10:47:24;;;;;;;8.07;4.05;;;19.10;45.50;;;;;;4969842;28;95084;-67
2022/03/11 10:49:54;;;;;;;4.97;3.92;;;19.00;45.70;;;;;;4970660;28;92596;-67
2022/03/11 10:52:41;;;;;;;6.57;3.55;;;19.00;45.80;;;;;;4970754;28;92604;-68
2022/03/11 10:55:28;;;;;;;7.85;4.30;;;19.00;45.80;;;;;;4970399;28;93677;-68
2022/03/11 10:57:56;;;;;;;8.30;3.97;;;19.00;45.80;;;;;;4969970;28;93889;-67
2022/03/11 11:00:24;;;;;;;6.68;3.90;;;18.90;45.90;;;;;;4953409;28;93148;-67
2022/03/11 11:02:52;;;;;;;7.65;3.90;;;18.90;45.90;;;;;;4976645;28;91786;-69
2022/03/11 11:05:19;;;;;;;5.40;3.80;;;18.90;45.90;;;;;;4976587;28;93222;-67
2022/03/11 11:07:45;;;;;;;5.55;3.50;;;18.90;45.90;;;;;;4975815;28;92934;-68
2022/03/11 11:10:16;;;;;;;7.28;4.10;;;18.80;45.80;;;;;;4974808;28;94902;-67
2022/03/11 11:12:42;;;;;;;7.45;4.35;;;18.80;45.80;;;;;;4976492;28;92906;-68
2022/03/11 11:15:11;;;;;;;6.88;3.65;;;18.80;45.80;;;;;;4975368;28;92757;-72
2022/03/11 11:17:42;;;;;;;6.90;4.03;;;18.80;45.70;;;;;;4976150;28;92983;-70
2022/03/11 11:20:33;;;;;;;6.57;4.53;;;18.80;46.00;;;;;;4976083;28;92445;-70
2022/03/11 11:23:03;;;;;;;7.60;4.10;;;18.80;46.80;;;;;;4976458;28;92489;-68
2022/03/11 11:25:29;;;;;;;7.22;4.47;;;18.80;46.90;;;;;;4975629;28;93147;-67
2022/03/11 11:28:00;;;;;;;8.15;4.22;;;18.80;47.00;;;;;;4979731;28;92728;-67
2022/03/11 11:30:26;;;;;;;7.13;4.20;;;18.80;47.50;;;;;;4979216;28;92486;-67
2022/03/11 11:32:52;;;;;;;7.43;4.18;;;18.90;47.80;;;;;;4977092;28;92737;-67
2022/03/11 11:35:29;;;;;;;7.20;3.90;;;18.80;47.90;;;;;;4977498;28;96468;-66
2022/03/11 11:37:56;;;;;;;5.78;3.85;;;18.90;48.20;;;;;;4977782;28;96196;-67
2022/03/11 11:40:32;;;;;;;6.78;4.00;;;18.90;48.30;;;;;;4977881;28;92936;-68
2022/03/11 11:43:45;;;;;;;8.10;3.72;;;18.90;48.40;;;;;;4975551;28;92696;-69
2022/03/11 11:46:11;;;;;;;14.68;4.00;;;18.90;48.40;;;;;;4971205;28;93861;-67
2022/03/11 11:48:42;;;;;;;9.47;4.37;;;18.90;48.40;;;;;;4975803;28;93156;-68
2022/03/11 11:51:13;;;;;;;6.30;4.18;;;18.90;48.40;;;;;;4974935;28;92566;-68
2022/03/11 11:54:14;;;;;;;9.65;4.05;;;18.90;48.50;;;;;;4976120;28;91793;-68
2022/03/11 11:56:44;;;;;;;7.20;4.10;;;18.90;48.60;;;;;;4974981;28;93166;-68
2022/03/11 11:59:16;;;;;;;9.90;4.55;;;18.90;48.50;;;;;;4975838;28;92905;-68
2022/03/11 12:01:46;;;;;;;5.82;3.78;;;18.90;48.50;;;;;;4975117;28;95247;-68
2022/03/11 12:04:33;;;;;;;8.30;4.55;;;18.90;48.40;;;;;;4974985;28;92927;-68
2022/03/11 12:07:00;;;;;;;7.53;4.38;;;18.90;48.60;;;;;;4975518;28;93084;-67
2022/03/11 12:12:25;;;;;;;6.88;3.92;;;18.90;48.70;;;;;;4973818;28;92977;-67
2022/03/11 12:15:00;;;;;;;10.02;4.43;;;18.90;48.40;;;;;;4972121;28;92513;-68
2022/03/11 12:17:41;;;;;;;7.13;4.13;;;19.00;48.40;;;;;;4971815;28;94151;-67
2022/03/11 12:20:26;;;;;;;5.82;3.80;;;19.00;48.20;;;;;;4971891;28;95091;-68
2022/03/11 12:23:14;;;;;;;6.28;4.13;;;19.00;48.40;;;;;;4971617;28;93590;-68
2022/03/11 12:25:49;;;;;;;6.30;3.83;;;19.00;48.00;;;;;;4972606;28;93060;-68
2022/03/11 12:28:27;;;;;;;6.95;3.95;;;19.00;48.20;;;;;;4969687;28;97410;-67
2022/03/11 12:30:53;;;;;;;5.55;3.70;;;19.00;48.20;;;;;;4972008;28;96602;-68
2022/03/11 12:33:24;;;;;;;6.60;4.00;;;19.00;48.20;;;;;;4972263;28;92454;-67
2022/03/11 12:35:53;;;;;;;6.57;4.10;;;19.00;48.30;;;;;;4972546;28;92529;-68
2022/03/11 12:38:22;;;;;;;6.18;3.80;;;19.10;48.10;;;;;;4972279;28;95770;-68
2022/03/11 12:40:48;;;;;;;6.05;3.90;;;19.10;48.00;;;;;;4954456;28;94038;-68
2022/03/11 12:43:18;;;;;;;6.03;4.18;;;19.10;47.90;;;;;;4972744;28;93346;-68
2022/03/11 12:45:50;;;;;;;9.13;3.90;;;19.10;47.90;;;;;;4971882;28;91887;-67
2022/03/11 12:48:18;;;;;;;20.05;4.53;;;19.20;48.40;;;;;;4971647;28;93267;-66
2022/03/11 12:50:45;;;;;;;6.68;3.95;;;19.20;48.40;;;;;;4953726;28;93017;-66
2022/03/11 12:53:12;;;;;;;5.28;3.65;;;19.20;48.10;;;;;;4971171;28;95484;-66
2022/03/11 12:55:40;;;;;;;5.47;4.18;;;19.30;47.90;;;;;;4972140;28;92701;-66
2022/03/11 12:58:08;;;;;;;6.05;3.53;;;19.30;47.70;;;;;;4971586;28;92529;-66
2022/03/11 13:00:39;;;;;;;5.57;3.92;;;19.40;47.70;;;;;;4971663;28;92920;-66
2022/03/11 13:03:12;;;;;;;4.82;3.50;;;19.40;47.50;;;;;;4971116;28;93857;-67
2022/03/11 13:05:41;;;;;;;5.55;3.55;;;19.50;47.40;;;;;;4971934;28;92669;-66
2022/03/11 13:08:10;;;;;;;5.90;3.65;;;19.50;47.30;;;;;;4970479;28;94661;-66
2022/03/11 13:10:36;;;;;;;5.53;4.00;;;19.50;48.30;;;;;;4954587;28;93152;-65
2022/03/11 13:13:04;;;;;;;6.97;3.70;;;19.50;47.40;;;;;;4971509;28;92646;-66
2022/03/11 13:15:32;;;;;;;5.22;4.07;;;19.60;47.50;;;;;;4971315;28;92907;-66
2022/03/11 13:17:58;;;;;;;6.43;3.88;;;19.60;47.40;;;;;;4969944;28;96857;-66
2022/03/11 13:20:33;;;;;;;5.47;3.80;;;19.60;47.40;;;;;;4971004;28;95905;-66
2022/03/11 13:23:07;;;;;;;6.60;3.55;;;19.60;47.40;;;;;;4972012;28;92975;-66
2022/03/11 13:25:33;;;;;;;5.20;3.72;;;19.60;47.30;;;;;;4971195;28;93122;-66
2022/03/11 13:27:59;;;;;;;4.40;3.75;;;19.60;47.30;;;;;;4971138;28;93123;-65
2022/03/11 13:30:32;;;;;;;6.60;3.70;;;19.60;47.50;;;;;;4970404;28;92661;-66
2022/03/11 13:33:09;;;;;;;7.30;4.07;;;19.60;47.50;;;;;;4970805;28;93185;-66
2022/03/11 13:35:35;;;;;;;8.00;4.07;;;19.60;47.50;;;;;;4971378;28;92290;-67
2022/03/11 13:38:00;;;;;;;5.82;3.90;;;19.60;47.40;;;;;;4970687;28;93626;-67
2022/03/11 13:40:27;;;;;;;5.20;3.50;;;19.60;47.40;;;;;;4970934;28;92986;-66
2022/03/11 13:42:59;;;;;;;5.85;3.85;;;19.60;47.50;;;;;;4970002;28;95666;-67
2022/03/11 13:45:30;;;;;;;4.72;4.07;;;19.60;47.40;;;;;;4970695;28;93093;-65
2022/03/11 13:48:09;;;;;;;6.28;4.50;;;19.60;47.10;;;;;;4972064;28;93604;-66
2022/03/11 13:50:36;;;;;;;7.60;4.00;;;19.60;47.10;;;;;;4972062;28;94500;-66
2022/03/11 13:53:03;;;;;;;4.68;3.80;;;19.60;47.00;;;;;;4971417;28;93131;-66
2022/03/11 13:55:37;;;;;;;4.97;4.05;;;19.60;47.00;;;;;;4970536;28;93085;-66
2022/03/11 13:58:20;;;;;;;7.15;4.32;;;19.60;47.10;;;;;;4970467;28;94103;-67
2022/03/11 14:00:48;;;;;;;6.40;4.20;;;19.60;47.10;;;;;;4970556;28;94595;-66
2022/03/11 14:03:15;;;;;;;6.22;4.20;;;19.60;47.10;;;;;;4970614;28;94010;-66
2022/03/11 14:05:42;;;;;;;6.18;4.20;;;19.60;47.10;;;;;;4970770;28;93077;-66
2022/03/11 14:08:08;;;;;;;7.70;4.40;;;19.60;47.30;;;;;;4968084;28;95764;-66
2022/03/11 14:10:40;;;;;;;6.28;4.07;;;19.60;47.30;;;;;;4970164;28;96178;-65
2022/03/11 14:13:08;;;;;;;5.43;3.77;;;19.60;47.50;;;;;;4969902;28;92780;-65
2022/03/11 14:15:39;;;;;;;7.45;4.43;;;19.60;47.50;;;;;;4970991;28;92764;-67
2022/03/11 14:18:08;;;;;;;7.30;4.30;;;19.60;47.50;;;;;;4970974;28;94085;-66
2022/03/11 14:20:33;;;;;;;7.35;4.75;;;19.60;47.40;;;;;;4970477;28;94788;-66
2022/03/11 14:22:59;;;;;;;13.90;4.65;;;19.60;47.40;;;;;;4969885;28;93007;-67
2022/03/11 14:25:25;;;;;;;11.15;4.57;;;19.60;47.70;;;;;;4969079;28;96435;-66
2022/03/11 14:27:50;;;;;;;29.13;4.85;;;19.60;47.70;;;;;;4969989;28;94168;-65
2022/03/11 14:30:16;;;;;;;15.75;4.97;;;19.60;47.70;;;;;;4969145;28;93832;-66
2022/03/11 14:32:42;;;;;;;13.23;4.82;;;19.60;47.80;;;;;;4968170;28;96577;-65
2022/03/11 14:35:08;;;;;;;11.93;4.15;;;19.60;47.80;;;;;;4970146;28;92758;-64